0P0 weather

Public forecast

Using degrees Fahrenheit for public forecast. Weather courtesy of forecast.io.

Closest aviation weather report (METAR) to Valley Forge Bicentennial Heliport

Closest report is Wings Field, 6.5 nm (12.1 km) E. Retrieved 2020/08/11 13:15 UTC (3 minutes ago):

KLOM 111315Z AUTO 16007KT 7SM OVC009 26/24 A3001 RMK AO2 T02590241

Closest aviation forecast (TAF) to Valley Forge Bicentennial Heliport

Closest forecast is Philadelphia International Airport, 16.8 nm (31.1 km) SSE. Retrieved 2020/08/11 12:37 UTC (41 minutes ago):

TAF KPHL 111133Z 1112/1218 19006KT P6SM FEW009 SCT200 TEMPO 1112/1114 BKN009 FM111600 19008KT P6SM FEW050 FM111800 19011KT P6SM SCT050 FM120100 20006KT P6SM FEW250 FM120700 VRB04KT P6SM BKN050 FM121400 18005KT P6SM BKN060